Terminal Aerodrome Forecast
Issued by NWS Omaha/Valley, NE

Home | Current Version | Previous Version | Text Only | Print | Product List | Glossary On
Versions: 1 2 3 4 5 6 7 8 9 10 11 12 13 14 15 16 17 18 19 20 21 22 23
000
FTUS43 KOAX 262320
TAFOMA
TAF
KOMA 262320Z 2700/2724 35011KT P6SM OVC011
      TEMPO 2701/2703 5SM -FZDZSN OVC007
     FM270300 34011KT 2SM -SN BR OVC007
     FM271000 33012KT P6SM OVC007
     FM271200 32010KT P6SM OVC015
     FM271900 30008KT P6SM SCT020=

USA.gov is the U.S. government's official web portal to all federal, state and local government web resources and services.